Rygge, Norway

7:53 AM CEST on August 26, 2016 (GMT +0200)
Rygge Air Base | | Change Station

Elev 174 ft 59.38 °N, 10.79 °E | Updated 33 minutes ago

Mostly Cloudy
Mostly Cloudy
63 °F
Feels Like 63 °F
N
7
Wind Variable Wind from East

Today
High -- | Low -- °F
--% Chance of Precip.
Yesterday
High -- | Low -- °F
Precip. -- in
Pressure 29.89 in
Visibility 6.2 miles
Clouds Scattered Clouds 600 ft
Mostly Cloudy 10000 ft
Dew Point 63 °F
Humidity 100%
Rainfall 0.00 in
Snow Depth Not available.
6:00 AM 8:35 PM
Last Quarter, 38% visible
METAR ENRY 260520Z 08006KT 9999 SCT006 BKN100 17/17 Q1012 TEMPO 4000 SHRA BR BKN006 SCT015CB
Pressure 29.89 in
Visibility 6.2 miles
Clouds Scattered Clouds 600 ft
Mostly Cloudy 10000 ft
Dew Point 63 °F
Humidity 100%
Rainfall 0.00 in
Snow Depth Not available.
6:00 AM 8:35 PM
Last Quarter, 38% visible
METAR ENRY 260520Z 08006KT 9999 SCT006 BKN100 17/17 Q1012 TEMPO 4000 SHRA BR BKN006 SCT015CB

10-Day Weather Forecast

×

Almanac

Astronomy

Aug. 26, 2016 Rise Set
Actual Time
Civil Twilight
Nautical Twilight
Astronomical Twilight
Moon
Length of Visible Light
Length of Day
Tomorrow will be .
, % of the Moon is Illuminated

Today's Extremes

Country Highs Country Lows

Community

WunderPhotos

Upload Photos

1,935,057 photos uploaded!

WunderBlog® & News

Nearby

Air Quality

  Air Quality AQ Index Pollutant
Not available.

Snow Depth

Station Depth Elevation

Earthquake Activity

City Distance Mag. Time & Date
Minimum magnitude displayed is 2.5.

Coastal Water Temperatures

Place Temperature

Stations

Nearby Weather Stations

Station Location Temp. Windchill Dew Point Humidity Wind Precip. Elev Updated Type